sensor_id;sensor_type;location;lat;lon;timestamp;P1;durP1;ratioP1;P2;durP2;ratioP2
209;SDS011;90;48.810;9.120;2022-10-16T00:02:04;4.00;;;2.77;;
209;SDS011;90;48.810;9.120;2022-10-16T00:04:31;3.30;;;3.10;;
209;SDS011;90;48.810;9.120;2022-10-16T00:06:58;3.97;;;3.77;;
209;SDS011;90;48.810;9.120;2022-10-16T00:09:27;6.30;;;2.80;;
209;SDS011;90;48.810;9.120;2022-10-16T00:11:54;3.30;;;3.10;;
209;SDS011;90;48.810;9.120;2022-10-16T00:14:21;4.00;;;3.80;;
209;SDS011;90;48.810;9.120;2022-10-16T00:16:48;3.63;;;3.43;;
209;SDS011;90;48.810;9.120;2022-10-16T00:19:15;4.10;;;2.97;;
209;SDS011;90;48.810;9.120;2022-10-16T00:21:42;3.77;;;3.57;;
209;SDS011;90;48.810;9.120;2022-10-16T00:24:10;3.80;;;3.60;;
209;SDS011;90;48.810;9.120;2022-10-16T00:26:38;3.40;;;3.20;;
209;SDS011;90;48.810;9.120;2022-10-16T00:29:06;7.53;;;3.50;;
209;SDS011;90;48.810;9.120;2022-10-16T00:31:34;3.30;;;3.10;;
209;SDS011;90;48.810;9.120;2022-10-16T00:34:03;3.60;;;3.40;;
209;SDS011;90;48.810;9.120;2022-10-16T00:36:30;3.50;;;3.30;;
209;SDS011;90;48.810;9.120;2022-10-16T00:38:57;3.60;;;3.43;;
209;SDS011;90;48.810;9.120;2022-10-16T00:41:26;4.23;;;3.43;;
209;SDS011;90;48.810;9.120;2022-10-16T00:43:58;3.97;;;3.67;;
209;SDS011;90;48.810;9.120;2022-10-16T00:46:27;3.33;;;3.13;;
209;SDS011;90;48.810;9.120;2022-10-16T00:49:01;4.13;;;3.57;;
209;SDS011;90;48.810;9.120;2022-10-16T00:51:30;4.50;;;3.83;;
209;SDS011;90;48.810;9.120;2022-10-16T00:54:00;5.23;;;3.33;;
209;SDS011;90;48.810;9.120;2022-10-16T00:56:31;4.27;;;3.80;;
209;SDS011;90;48.810;9.120;2022-10-16T00:59:01;4.10;;;3.90;;
209;SDS011;90;48.810;9.120;2022-10-16T01:01:29;3.87;;;3.67;;
209;SDS011;90;48.810;9.120;2022-10-16T01:03:56;5.03;;;3.40;;
209;SDS011;90;48.810;9.120;2022-10-16T01:06:24;4.10;;;3.67;;
209;SDS011;90;48.810;9.120;2022-10-16T01:09:07;3.70;;;3.50;;
209;SDS011;90;48.810;9.120;2022-10-16T01:11:41;5.97;;;3.23;;
209;SDS011;90;48.810;9.120;2022-10-16T01:14:17;6.33;;;3.50;;
209;SDS011;90;48.810;9.120;2022-10-16T01:16:52;3.97;;;3.40;;
209;SDS011;90;48.810;9.120;2022-10-16T01:19:26;4.00;;;3.00;;
209;SDS011;90;48.810;9.120;2022-10-16T01:22:07;4.20;;;3.53;;
209;SDS011;90;48.810;9.120;2022-10-16T01:24:37;3.23;;;3.03;;
209;SDS011;90;48.810;9.120;2022-10-16T01:27:11;4.23;;;3.97;;
209;SDS011;90;48.810;9.120;2022-10-16T01:29:42;3.67;;;3.50;;
209;SDS011;90;48.810;9.120;2022-10-16T01:32:17;3.97;;;3.77;;
209;SDS011;90;48.810;9.120;2022-10-16T01:34:50;3.60;;;3.40;;
209;SDS011;90;48.810;9.120;2022-10-16T01:37:22;3.30;;;3.10;;
209;SDS011;90;48.810;9.120;2022-10-16T01:39:59;5.60;;;4.70;;
209;SDS011;90;48.810;9.120;2022-10-16T01:42:30;6.30;;;5.00;;
209;SDS011;90;48.810;9.120;2022-10-16T01:45:02;3.50;;;3.30;;
209;SDS011;90;48.810;9.120;2022-10-16T01:47:33;5.73;;;3.70;;
209;SDS011;90;48.810;9.120;2022-10-16T01:50:03;3.67;;;3.50;;
209;SDS011;90;48.810;9.120;2022-10-16T01:52:32;4.03;;;3.83;;
209;SDS011;90;48.810;9.120;2022-10-16T01:55:03;3.53;;;3.33;;
209;SDS011;90;48.810;9.120;2022-10-16T01:57:34;5.03;;;3.70;;
209;SDS011;90;48.810;9.120;2022-10-16T02:00:05;3.60;;;3.40;;
209;SDS011;90;48.810;9.120;2022-10-16T02:02:36;5.70;;;3.60;;
209;SDS011;90;48.810;9.120;2022-10-16T02:05:09;4.60;;;3.63;;
209;SDS011;90;48.810;9.120;2022-10-16T02:07:41;4.07;;;3.87;;
209;SDS011;90;48.810;9.120;2022-10-16T02:10:08;4.77;;;3.40;;
209;SDS011;90;48.810;9.120;2022-10-16T02:12:38;4.87;;;3.90;;
209;SDS011;90;48.810;9.120;2022-10-16T02:15:09;5.00;;;4.20;;
209;SDS011;90;48.810;9.120;2022-10-16T02:17:36;4.37;;;4.07;;
209;SDS011;90;48.810;9.120;2022-10-16T02:20:04;5.40;;;3.33;;
209;SDS011;90;48.810;9.120;2022-10-16T02:22:32;4.23;;;3.40;;
209;SDS011;90;48.810;9.120;2022-10-16T02:25:04;3.50;;;3.30;;
209;SDS011;90;48.810;9.120;2022-10-16T02:27:35;9.17;;;3.60;;
209;SDS011;90;48.810;9.120;2022-10-16T02:30:11;4.63;;;2.90;;
209;SDS011;90;48.810;9.120;2022-10-16T02:32:44;3.47;;;3.33;;
209;SDS011;90;48.810;9.120;2022-10-16T02:35:15;4.33;;;4.03;;
209;SDS011;90;48.810;9.120;2022-10-16T02:37:44;9.00;;;3.47;;
209;SDS011;90;48.810;9.120;2022-10-16T02:40:13;3.70;;;3.50;;
209;SDS011;90;48.810;9.120;2022-10-16T02:42:49;4.10;;;3.30;;
209;SDS011;90;48.810;9.120;2022-10-16T02:45:17;3.40;;;3.20;;
209;SDS011;90;48.810;9.120;2022-10-16T02:47:45;8.80;;;3.50;;
209;SDS011;90;48.810;9.120;2022-10-16T02:50:12;3.40;;;3.23;;
209;SDS011;90;48.810;9.120;2022-10-16T02:52:39;7.33;;;4.03;;
209;SDS011;90;48.810;9.120;2022-10-16T02:55:07;2.90;;;2.70;;
209;SDS011;90;48.810;9.120;2022-10-16T02:57:34;5.37;;;3.50;;
209;SDS011;90;48.810;9.120;2022-10-16T03:00:06;6.50;;;3.13;;
209;SDS011;90;48.810;9.120;2022-10-16T03:02:34;7.07;;;4.10;;
209;SDS011;90;48.810;9.120;2022-10-16T03:05:01;3.30;;;3.10;;
209;SDS011;90;48.810;9.120;2022-10-16T03:07:28;6.37;;;3.10;;
209;SDS011;90;48.810;9.120;2022-10-16T03:09:55;5.83;;;3.13;;
209;SDS011;90;48.810;9.120;2022-10-16T03:12:25;10.73;;;3.27;;
209;SDS011;90;48.810;9.120;2022-10-16T03:14:52;3.73;;;3.53;;
209;SDS011;90;48.810;9.120;2022-10-16T03:17:21;3.63;;;3.20;;
209;SDS011;90;48.810;9.120;2022-10-16T03:19:48;4.47;;;3.83;;
209;SDS011;90;48.810;9.120;2022-10-16T03:22:15;5.13;;;2.83;;
209;SDS011;90;48.810;9.120;2022-10-16T03:24:42;3.17;;;2.97;;
209;SDS011;90;48.810;9.120;2022-10-16T03:27:09;4.10;;;3.17;;
209;SDS011;90;48.810;9.120;2022-10-16T03:29:36;3.57;;;3.40;;
209;SDS011;90;48.810;9.120;2022-10-16T03:32:03;3.93;;;3.30;;
209;SDS011;90;48.810;9.120;2022-10-16T03:34:31;7.20;;;3.20;;
209;SDS011;90;48.810;9.120;2022-10-16T03:36:58;4.83;;;2.97;;
209;SDS011;90;48.810;9.120;2022-10-16T03:39:25;4.10;;;3.80;;
209;SDS011;90;48.810;9.120;2022-10-16T03:41:53;5.37;;;3.90;;
209;SDS011;90;48.810;9.120;2022-10-16T03:44:20;17.33;;;4.23;;
209;SDS011;90;48.810;9.120;2022-10-16T03:46:47;9.50;;;3.40;;
209;SDS011;90;48.810;9.120;2022-10-16T03:49:14;4.10;;;3.90;;
209;SDS011;90;48.810;9.120;2022-10-16T03:51:43;7.50;;;4.03;;
209;SDS011;90;48.810;9.120;2022-10-16T03:54:10;3.93;;;3.60;;
209;SDS011;90;48.810;9.120;2022-10-16T03:56:37;4.23;;;3.97;;
209;SDS011;90;48.810;9.120;2022-10-16T03:59:04;3.53;;;3.17;;
209;SDS011;90;48.810;9.120;2022-10-16T04:01:31;3.80;;;3.57;;
209;SDS011;90;48.810;9.120;2022-10-16T04:03:58;3.77;;;3.60;;
209;SDS011;90;48.810;9.120;2022-10-16T04:06:25;5.40;;;4.10;;
209;SDS011;90;48.810;9.120;2022-10-16T04:08:54;4.07;;;3.87;;
209;SDS011;90;48.810;9.120;2022-10-16T04:11:21;5.60;;;3.23;;
209;SDS011;90;48.810;9.120;2022-10-16T04:13:48;4.77;;;3.43;;
209;SDS011;90;48.810;9.120;2022-10-16T04:16:15;4.60;;;3.50;;
209;SDS011;90;48.810;9.120;2022-10-16T04:18:42;9.23;;;4.17;;
209;SDS011;90;48.810;9.120;2022-10-16T04:21:09;4.67;;;4.37;;
209;SDS011;90;48.810;9.120;2022-10-16T04:23:35;4.53;;;4.00;;
209;SDS011;90;48.810;9.120;2022-10-16T04:26:04;5.50;;;4.47;;
209;SDS011;90;48.810;9.120;2022-10-16T04:28:31;3.87;;;3.67;;
209;SDS011;90;48.810;9.120;2022-10-16T04:30:58;9.20;;;3.70;;
209;SDS011;90;48.810;9.120;2022-10-16T04:33:25;9.03;;;4.00;;
209;SDS011;90;48.810;9.120;2022-10-16T04:35:56;3.43;;;3.23;;
209;SDS011;90;48.810;9.120;2022-10-16T04:38:23;5.93;;;3.40;;
209;SDS011;90;48.810;9.120;2022-10-16T04:40:50;4.43;;;3.90;;
209;SDS011;90;48.810;9.120;2022-10-16T04:43:19;6.73;;;3.80;;
209;SDS011;90;48.810;9.120;2022-10-16T04:45:47;4.30;;;4.00;;
209;SDS011;90;48.810;9.120;2022-10-16T04:48:15;4.43;;;4.13;;
209;SDS011;90;48.810;9.120;2022-10-16T04:50:42;4.50;;;4.20;;
209;SDS011;90;48.810;9.120;2022-10-16T04:53:09;10.00;;;4.60;;
209;SDS011;90;48.810;9.120;2022-10-16T04:55:36;4.63;;;4.33;;
209;SDS011;90;48.810;9.120;2022-10-16T04:58:04;5.90;;;3.20;;
209;SDS011;90;48.810;9.120;2022-10-16T05:00:32;12.67;;;4.50;;
209;SDS011;90;48.810;9.120;2022-10-16T05:02:59;8.40;;;4.20;;
209;SDS011;90;48.810;9.120;2022-10-16T05:05:27;5.87;;;3.43;;
209;SDS011;90;48.810;9.120;2022-10-16T05:07:54;6.20;;;3.50;;
209;SDS011;90;48.810;9.120;2022-10-16T05:10:21;3.53;;;3.42;;
209;SDS011;90;48.810;9.120;2022-10-16T05:12:48;3.93;;;3.73;;
209;SDS011;90;48.810;9.120;2022-10-16T05:15:16;5.97;;;3.50;;
209;SDS011;90;48.810;9.120;2022-10-16T05:17:45;4.90;;;4.00;;
209;SDS011;90;48.810;9.120;2022-10-16T05:20:12;4.77;;;3.77;;
209;SDS011;90;48.810;9.120;2022-10-16T05:22:39;4.30;;;4.00;;
209;SDS011;90;48.810;9.120;2022-10-16T05:25:06;5.23;;;4.07;;
209;SDS011;90;48.810;9.120;2022-10-16T05:27:33;3.97;;;3.57;;
209;SDS011;90;48.810;9.120;2022-10-16T05:30:00;5.27;;;3.80;;
209;SDS011;90;48.810;9.120;2022-10-16T05:32:27;5.10;;;3.90;;
209;SDS011;90;48.810;9.120;2022-10-16T05:34:56;5.50;;;3.37;;
209;SDS011;90;48.810;9.120;2022-10-16T05:37:25;4.10;;;3.90;;
209;SDS011;90;48.810;9.120;2022-10-16T05:39:52;3.83;;;3.60;;
209;SDS011;90;48.810;9.120;2022-10-16T05:42:19;4.63;;;2.83;;
209;SDS011;90;48.810;9.120;2022-10-16T05:44:46;5.60;;;4.10;;
209;SDS011;90;48.810;9.120;2022-10-16T05:47:13;6.10;;;3.70;;
209;SDS011;90;48.810;9.120;2022-10-16T05:49:40;4.33;;;3.80;;
209;SDS011;90;48.810;9.120;2022-10-16T05:52:09;4.63;;;3.90;;
209;SDS011;90;48.810;9.120;2022-10-16T05:54:36;6.93;;;4.03;;
209;SDS011;90;48.810;9.120;2022-10-16T05:57:03;3.80;;;3.60;;
209;SDS011;90;48.810;9.120;2022-10-16T05:59:30;3.83;;;3.63;;
209;SDS011;90;48.810;9.120;2022-10-16T06:01:58;4.00;;;3.77;;
209;SDS011;90;48.810;9.120;2022-10-16T06:04:25;3.57;;;3.37;;
209;SDS011;90;48.810;9.120;2022-10-16T06:06:52;4.50;;;3.10;;
209;SDS011;90;48.810;9.120;2022-10-16T06:09:21;5.43;;;4.50;;
209;SDS011;90;48.810;9.120;2022-10-16T06:11:48;4.43;;;3.73;;
209;SDS011;90;48.810;9.120;2022-10-16T06:14:17;3.83;;;3.47;;
209;SDS011;90;48.810;9.120;2022-10-16T06:16:44;3.60;;;3.40;;
209;SDS011;90;48.810;9.120;2022-10-16T06:19:11;6.23;;;3.70;;
209;SDS011;90;48.810;9.120;2022-10-16T06:21:39;3.93;;;3.73;;
209;SDS011;90;48.810;9.120;2022-10-16T06:24:06;4.00;;;3.80;;
209;SDS011;90;48.810;9.120;2022-10-16T06:26:35;3.63;;;3.40;;
209;SDS011;90;48.810;9.120;2022-10-16T06:29:03;4.70;;;3.77;;
209;SDS011;90;48.810;9.120;2022-10-16T06:31:30;3.47;;;3.30;;
209;SDS011;90;48.810;9.120;2022-10-16T06:33:58;3.37;;;3.17;;
209;SDS011;90;48.810;9.120;2022-10-16T06:36:26;3.23;;;2.90;;
209;SDS011;90;48.810;9.120;2022-10-16T06:38:53;3.70;;;3.50;;
209;SDS011;90;48.810;9.120;2022-10-16T06:41:21;4.73;;;3.83;;
209;SDS011;90;48.810;9.120;2022-10-16T06:43:50;4.30;;;3.40;;
209;SDS011;90;48.810;9.120;2022-10-16T06:46:18;4.10;;;3.90;;
209;SDS011;90;48.810;9.120;2022-10-16T06:48:47;5.13;;;3.00;;
209;SDS011;90;48.810;9.120;2022-10-16T06:51:15;4.13;;;3.93;;
209;SDS011;90;48.810;9.120;2022-10-16T06:53:43;3.30;;;3.10;;
209;SDS011;90;48.810;9.120;2022-10-16T06:56:13;3.47;;;3.27;;
209;SDS011;90;48.810;9.120;2022-10-16T06:58:41;3.40;;;3.20;;
209;SDS011;90;48.810;9.120;2022-10-16T07:01:10;4.70;;;3.40;;
209;SDS011;90;48.810;9.120;2022-10-16T07:03:39;3.33;;;2.97;;
209;SDS011;90;48.810;9.120;2022-10-16T07:06:08;3.30;;;3.17;;
209;SDS011;90;48.810;9.120;2022-10-16T07:08:38;3.90;;;3.40;;
209;SDS011;90;48.810;9.120;2022-10-16T07:11:07;3.77;;;3.57;;
209;SDS011;90;48.810;9.120;2022-10-16T07:13:35;6.63;;;3.60;;
209;SDS011;90;48.810;9.120;2022-10-16T07:16:06;4.93;;;3.60;;
209;SDS011;90;48.810;9.120;2022-10-16T07:18:35;4.53;;;4.23;;
209;SDS011;90;48.810;9.120;2022-10-16T07:21:04;3.77;;;3.57;;
209;SDS011;90;48.810;9.120;2022-10-16T07:23:32;3.50;;;3.30;;
209;SDS011;90;48.810;9.120;2022-10-16T07:25:59;10.33;;;4.23;;
209;SDS011;90;48.810;9.120;2022-10-16T07:28:26;6.70;;;3.50;;
209;SDS011;90;48.810;9.120;2022-10-16T07:30:54;4.33;;;3.90;;
209;SDS011;90;48.810;9.120;2022-10-16T07:33:21;3.50;;;3.30;;
209;SDS011;90;48.810;9.120;2022-10-16T07:35:51;5.67;;;3.30;;
209;SDS011;90;48.810;9.120;2022-10-16T07:38:19;4.40;;;3.70;;
209;SDS011;90;48.810;9.120;2022-10-16T07:40:47;3.80;;;3.30;;
209;SDS011;90;48.810;9.120;2022-10-16T07:43:21;6.97;;;3.50;;
209;SDS011;90;48.810;9.120;2022-10-16T07:45:48;54.37;;;4.50;;
209;SDS011;90;48.810;9.120;2022-10-16T07:48:17;5.43;;;3.43;;
209;SDS011;90;48.810;9.120;2022-10-16T07:50:44;23.17;;;4.50;;
209;SDS011;90;48.810;9.120;2022-10-16T07:53:13;5.23;;;3.90;;
209;SDS011;90;48.810;9.120;2022-10-16T07:55:40;4.37;;;3.60;;
209;SDS011;90;48.810;9.120;2022-10-16T07:58:08;4.00;;;3.57;;
209;SDS011;90;48.810;9.120;2022-10-16T08:00:35;3.97;;;3.40;;
209;SDS011;90;48.810;9.120;2022-10-16T08:03:03;7.70;;;3.70;;
209;SDS011;90;48.810;9.120;2022-10-16T08:05:31;11.70;;;5.07;;
209;SDS011;90;48.810;9.120;2022-10-16T08:07:59;17.30;;;6.30;;
209;SDS011;90;48.810;9.120;2022-10-16T08:10:28;12.80;;;5.07;;
209;SDS011;90;48.810;9.120;2022-10-16T08:12:56;11.40;;;4.20;;
209;SDS011;90;48.810;9.120;2022-10-16T08:15:23;6.77;;;4.40;;
209;SDS011;90;48.810;9.120;2022-10-16T08:17:54;5.40;;;3.93;;
209;SDS011;90;48.810;9.120;2022-10-16T08:20:22;5.70;;;4.30;;
209;SDS011;90;48.810;9.120;2022-10-16T08:22:49;4.10;;;3.30;;
209;SDS011;90;48.810;9.120;2022-10-16T08:25:16;9.80;;;4.50;;
209;SDS011;90;48.810;9.120;2022-10-16T08:27:44;7.37;;;3.83;;
209;SDS011;90;48.810;9.120;2022-10-16T08:30:11;4.57;;;3.70;;
209;SDS011;90;48.810;9.120;2022-10-16T08:32:39;5.00;;;3.80;;
209;SDS011;90;48.810;9.120;2022-10-16T08:35:07;5.17;;;3.70;;
209;SDS011;90;48.810;9.120;2022-10-16T08:37:35;3.87;;;3.47;;
209;SDS011;90;48.810;9.120;2022-10-16T08:40:03;5.77;;;3.67;;
209;SDS011;90;48.810;9.120;2022-10-16T08:42:39;11.73;;;4.13;;
209;SDS011;90;48.810;9.120;2022-10-16T08:45:29;8.63;;;3.90;;
209;SDS011;90;48.810;9.120;2022-10-16T08:48:13;4.53;;;4.07;;
209;SDS011;90;48.810;9.120;2022-10-16T08:50:45;4.73;;;3.70;;
209;SDS011;90;48.810;9.120;2022-10-16T08:53:17;6.20;;;4.13;;
209;SDS011;90;48.810;9.120;2022-10-16T08:55:49;3.97;;;3.47;;
209;SDS011;90;48.810;9.120;2022-10-16T08:58:20;3.57;;;3.37;;
209;SDS011;90;48.810;9.120;2022-10-16T09:00:50;3.50;;;3.30;;
209;SDS011;90;48.810;9.120;2022-10-16T09:03:23;3.40;;;3.20;;
209;SDS011;90;48.810;9.120;2022-10-16T09:06:10;4.67;;;3.80;;
209;SDS011;90;48.810;9.120;2022-10-16T09:08:47;4.40;;;3.80;;
209;SDS011;90;48.810;9.120;2022-10-16T09:11:25;4.40;;;3.70;;
209;SDS011;90;48.810;9.120;2022-10-16T09:14:04;3.47;;;3.27;;
209;SDS011;90;48.810;9.120;2022-10-16T09:16:44;3.77;;;3.57;;
209;SDS011;90;48.810;9.120;2022-10-16T09:19:20;3.60;;;3.40;;
209;SDS011;90;48.810;9.120;2022-10-16T09:21:52;6.93;;;3.73;;
209;SDS011;90;48.810;9.120;2022-10-16T09:24:20;9.30;;;4.20;;
209;SDS011;90;48.810;9.120;2022-10-16T09:26:51;4.40;;;3.80;;
209;SDS011;90;48.810;9.120;2022-10-16T09:29:20;3.20;;;3.00;;
209;SDS011;90;48.810;9.120;2022-10-16T09:31:50;3.80;;;3.60;;
209;SDS011;90;48.810;9.120;2022-10-16T09:34:20;5.30;;;3.40;;
209;SDS011;90;48.810;9.120;2022-10-16T09:36:54;5.13;;;3.97;;
209;SDS011;90;48.810;9.120;2022-10-16T09:39:23;5.10;;;3.47;;
209;SDS011;90;48.810;9.120;2022-10-16T09:41:51;3.72;;;3.40;;
209;SDS011;90;48.810;9.120;2022-10-16T09:44:22;4.47;;;3.80;;
209;SDS011;90;48.810;9.120;2022-10-16T09:47:00;3.77;;;3.30;;
209;SDS011;90;48.810;9.120;2022-10-16T09:49:28;4.87;;;3.50;;
209;SDS011;90;48.810;9.120;2022-10-16T09:52:02;6.00;;;3.40;;
209;SDS011;90;48.810;9.120;2022-10-16T09:54:30;3.80;;;3.63;;
209;SDS011;90;48.810;9.120;2022-10-16T09:57:04;4.00;;;3.67;;
209;SDS011;90;48.810;9.120;2022-10-16T09:59:33;4.67;;;3.47;;
209;SDS011;90;48.810;9.120;2022-10-16T10:02:01;3.60;;;3.40;;
209;SDS011;90;48.810;9.120;2022-10-16T10:04:37;4.50;;;4.20;;
209;SDS011;90;48.810;9.120;2022-10-16T10:07:07;4.10;;;3.57;;
209;SDS011;90;48.810;9.120;2022-10-16T10:09:46;4.90;;;3.70;;
209;SDS011;90;48.810;9.120;2022-10-16T10:12:17;4.00;;;3.53;;
209;SDS011;90;48.810;9.120;2022-10-16T10:14:48;3.73;;;3.53;;
209;SDS011;90;48.810;9.120;2022-10-16T10:17:18;4.90;;;3.53;;
209;SDS011;90;48.810;9.120;2022-10-16T10:19:50;3.70;;;3.50;;
209;SDS011;90;48.810;9.120;2022-10-16T10:22:19;3.90;;;3.70;;
209;SDS011;90;48.810;9.120;2022-10-16T10:24:55;7.80;;;3.73;;
209;SDS011;90;48.810;9.120;2022-10-16T10:27:29;4.97;;;3.43;;
209;SDS011;90;48.810;9.120;2022-10-16T10:30:04;4.93;;;3.90;;
209;SDS011;90;48.810;9.120;2022-10-16T10:32:42;3.40;;;3.20;;
209;SDS011;90;48.810;9.120;2022-10-16T10:35:17;4.65;;;2.90;;
209;SDS011;90;48.810;9.120;2022-10-16T10:37:59;4.07;;;3.87;;
209;SDS011;90;48.810;9.120;2022-10-16T10:40:39;4.43;;;4.13;;
209;SDS011;90;48.810;9.120;2022-10-16T10:43:15;4.97;;;3.97;;
209;SDS011;90;48.810;9.120;2022-10-16T10:45:52;3.70;;;3.50;;
209;SDS011;90;48.810;9.120;2022-10-16T10:48:34;4.40;;;3.87;;
209;SDS011;90;48.810;9.120;2022-10-16T10:51:18;4.93;;;4.20;;
209;SDS011;90;48.810;9.120;2022-10-16T10:53:51;7.00;;;4.10;;
209;SDS011;90;48.810;9.120;2022-10-16T10:56:37;9.10;;;4.50;;
209;SDS011;90;48.810;9.120;2022-10-16T11:02:13;4.80;;;4.50;;
209;SDS011;90;48.810;9.120;2022-10-16T11:08:03;6.13;;;3.70;;
209;SDS011;90;48.810;9.120;2022-10-16T11:10:38;4.57;;;4.27;;
209;SDS011;90;48.810;9.120;2022-10-16T11:13:16;6.50;;;4.20;;
209;SDS011;90;48.810;9.120;2022-10-16T11:15:53;7.70;;;3.97;;
209;SDS011;90;48.810;9.120;2022-10-16T11:18:27;4.60;;;3.93;;
209;SDS011;90;48.810;9.120;2022-10-16T11:21:01;4.30;;;4.00;;
209;SDS011;90;48.810;9.120;2022-10-16T11:23:33;4.47;;;4.17;;
209;SDS011;90;48.810;9.120;2022-10-16T11:26:06;4.77;;;4.47;;
209;SDS011;90;48.810;9.120;2022-10-16T11:28:42;4.30;;;4.00;;
209;SDS011;90;48.810;9.120;2022-10-16T11:31:13;3.90;;;3.70;;
209;SDS011;90;48.810;9.120;2022-10-16T11:33:48;9.90;;;4.60;;
209;SDS011;90;48.810;9.120;2022-10-16T11:36:22;6.53;;;3.57;;
209;SDS011;90;48.810;9.120;2022-10-16T11:38:55;5.55;;;3.58;;
209;SDS011;90;48.810;9.120;2022-10-16T11:41:27;4.30;;;4.00;;
209;SDS011;90;48.810;9.120;2022-10-16T11:44:04;6.30;;;3.77;;
209;SDS011;90;48.810;9.120;2022-10-16T11:46:40;3.80;;;3.60;;
209;SDS011;90;48.810;9.120;2022-10-16T11:49:17;4.10;;;3.90;;
209;SDS011;90;48.810;9.120;2022-10-16T11:51:49;3.67;;;3.47;;
209;SDS011;90;48.810;9.120;2022-10-16T11:54:26;3.30;;;3.10;;
209;SDS011;90;48.810;9.120;2022-10-16T11:56:59;4.17;;;3.93;;
209;SDS011;90;48.810;9.120;2022-10-16T11:59:36;4.67;;;4.30;;
209;SDS011;90;48.810;9.120;2022-10-16T12:02:25;3.73;;;3.60;;
209;SDS011;90;48.810;9.120;2022-10-16T12:05:17;3.60;;;3.40;;
209;SDS011;90;48.810;9.120;2022-10-16T12:07:52;4.30;;;4.00;;
209;SDS011;90;48.810;9.120;2022-10-16T12:10:30;4.30;;;4.00;;
209;SDS011;90;48.810;9.120;2022-10-16T12:13:02;3.70;;;3.50;;
209;SDS011;90;48.810;9.120;2022-10-16T12:15:30;4.37;;;4.07;;
209;SDS011;90;48.810;9.120;2022-10-16T12:17:58;4.10;;;3.90;;
209;SDS011;90;48.810;9.120;2022-10-16T12:20:28;5.50;;;3.70;;
209;SDS011;90;48.810;9.120;2022-10-16T12:22:58;3.80;;;3.60;;
209;SDS011;90;48.810;9.120;2022-10-16T12:25:31;4.30;;;4.00;;
209;SDS011;90;48.810;9.120;2022-10-16T12:28:01;4.47;;;4.17;;
209;SDS011;90;48.810;9.120;2022-10-16T12:30:31;6.80;;;4.13;;
209;SDS011;90;48.810;9.120;2022-10-16T12:33:01;6.33;;;4.00;;
209;SDS011;90;48.810;9.120;2022-10-16T12:35:32;5.00;;;3.97;;
209;SDS011;90;48.810;9.120;2022-10-16T12:38:05;5.60;;;4.30;;
209;SDS011;90;48.810;9.120;2022-10-16T12:40:35;4.60;;;4.30;;
209;SDS011;90;48.810;9.120;2022-10-16T12:43:23;4.22;;;3.50;;
209;SDS011;90;48.810;9.120;2022-10-16T12:46:00;10.87;;;4.30;;
209;SDS011;90;48.810;9.120;2022-10-16T12:48:30;3.87;;;3.67;;
209;SDS011;90;48.810;9.120;2022-10-16T12:51:08;4.50;;;4.20;;
209;SDS011;90;48.810;9.120;2022-10-16T12:53:37;4.03;;;3.83;;
209;SDS011;90;48.810;9.120;2022-10-16T12:56:09;10.33;;;3.80;;
209;SDS011;90;48.810;9.120;2022-10-16T12:58:49;3.40;;;3.10;;
209;SDS011;90;48.810;9.120;2022-10-16T13:01:27;4.37;;;4.07;;
209;SDS011;90;48.810;9.120;2022-10-16T13:04:10;3.83;;;3.63;;
209;SDS011;90;48.810;9.120;2022-10-16T13:06:49;4.73;;;4.10;;
209;SDS011;90;48.810;9.120;2022-10-16T13:09:22;4.43;;;4.13;;
209;SDS011;90;48.810;9.120;2022-10-16T13:12:05;4.47;;;4.17;;
209;SDS011;90;48.810;9.120;2022-10-16T13:15:01;5.17;;;4.40;;
209;SDS011;90;48.810;9.120;2022-10-16T13:17:52;4.57;;;4.10;;
209;SDS011;90;48.810;9.120;2022-10-16T13:20:27;6.10;;;4.67;;
209;SDS011;90;48.810;9.120;2022-10-16T13:23:04;4.43;;;4.13;;
209;SDS011;90;48.810;9.120;2022-10-16T13:25:49;7.73;;;4.40;;
209;SDS011;90;48.810;9.120;2022-10-16T13:28:28;4.23;;;3.77;;
209;SDS011;90;48.810;9.120;2022-10-16T13:30:58;6.97;;;4.00;;
209;SDS011;90;48.810;9.120;2022-10-16T13:33:30;4.00;;;3.80;;
209;SDS011;90;48.810;9.120;2022-10-16T13:35:59;7.00;;;4.27;;
209;SDS011;90;48.810;9.120;2022-10-16T13:38:29;5.80;;;4.07;;
209;SDS011;90;48.810;9.120;2022-10-16T13:40:58;4.67;;;4.37;;
209;SDS011;90;48.810;9.120;2022-10-16T13:43:27;4.90;;;4.60;;
209;SDS011;90;48.810;9.120;2022-10-16T13:45:58;10.48;;;4.25;;
209;SDS011;90;48.810;9.120;2022-10-16T13:48:27;9.33;;;4.47;;
209;SDS011;90;48.810;9.120;2022-10-16T13:50:58;5.93;;;4.00;;
209;SDS011;90;48.810;9.120;2022-10-16T13:53:35;6.37;;;3.73;;
209;SDS011;90;48.810;9.120;2022-10-16T13:56:03;5.57;;;4.27;;
209;SDS011;90;48.810;9.120;2022-10-16T13:58:32;4.60;;;4.30;;
209;SDS011;90;48.810;9.120;2022-10-16T14:01:01;4.30;;;3.70;;
209;SDS011;90;48.810;9.120;2022-10-16T14:03:30;4.50;;;4.20;;
209;SDS011;90;48.810;9.120;2022-10-16T14:05:59;4.60;;;4.30;;
209;SDS011;90;48.810;9.120;2022-10-16T14:08:29;4.10;;;3.90;;
209;SDS011;90;48.810;9.120;2022-10-16T14:10:59;4.30;;;4.00;;
209;SDS011;90;48.810;9.120;2022-10-16T14:13:30;4.10;;;3.90;;
209;SDS011;90;48.810;9.120;2022-10-16T14:16:02;4.63;;;4.33;;
209;SDS011;90;48.810;9.120;2022-10-16T14:18:33;4.57;;;4.00;;
209;SDS011;90;48.810;9.120;2022-10-16T14:21:04;4.47;;;3.87;;
209;SDS011;90;48.810;9.120;2022-10-16T14:23:34;6.47;;;4.27;;
209;SDS011;90;48.810;9.120;2022-10-16T14:26:13;4.37;;;4.07;;
209;SDS011;90;48.810;9.120;2022-10-16T14:28:42;4.63;;;4.33;;
209;SDS011;90;48.810;9.120;2022-10-16T14:31:26;4.80;;;4.50;;
209;SDS011;90;48.810;9.120;2022-10-16T14:33:55;11.30;;;4.40;;
209;SDS011;90;48.810;9.120;2022-10-16T14:36:22;4.90;;;4.60;;
209;SDS011;90;48.810;9.120;2022-10-16T14:38:54;6.67;;;4.80;;
209;SDS011;90;48.810;9.120;2022-10-16T14:41:30;4.83;;;4.53;;
209;SDS011;90;48.810;9.120;2022-10-16T14:44:09;9.20;;;4.83;;
209;SDS011;90;48.810;9.120;2022-10-16T14:46:38;6.70;;;5.00;;
209;SDS011;90;48.810;9.120;2022-10-16T14:49:13;5.47;;;5.10;;
209;SDS011;90;48.810;9.120;2022-10-16T14:51:43;7.32;;;3.80;;
209;SDS011;90;48.810;9.120;2022-10-16T14:54:11;5.93;;;4.80;;
209;SDS011;90;48.810;9.120;2022-10-16T14:56:45;5.53;;;4.47;;
209;SDS011;90;48.810;9.120;2022-10-16T14:59:14;5.13;;;4.83;;
209;SDS011;90;48.810;9.120;2022-10-16T15:01:45;5.87;;;4.97;;
209;SDS011;90;48.810;9.120;2022-10-16T15:04:15;5.30;;;5.00;;
209;SDS011;90;48.810;9.120;2022-10-16T15:06:43;5.03;;;4.40;;
209;SDS011;90;48.810;9.120;2022-10-16T15:09:10;4.83;;;4.53;;
209;SDS011;90;48.810;9.120;2022-10-16T15:11:38;7.43;;;4.90;;
209;SDS011;90;48.810;9.120;2022-10-16T15:14:08;5.77;;;4.43;;
209;SDS011;90;48.810;9.120;2022-10-16T15:16:37;5.10;;;4.80;;
209;SDS011;90;48.810;9.120;2022-10-16T15:19:04;5.07;;;4.13;;
209;SDS011;90;48.810;9.120;2022-10-16T15:21:31;5.33;;;5.03;;
209;SDS011;90;48.810;9.120;2022-10-16T15:23:59;5.53;;;5.07;;
209;SDS011;90;48.810;9.120;2022-10-16T15:26:27;5.17;;;4.87;;
209;SDS011;90;48.810;9.120;2022-10-16T15:28:55;5.50;;;5.23;;
209;SDS011;90;48.810;9.120;2022-10-16T15:31:24;5.60;;;5.30;;
209;SDS011;90;48.810;9.120;2022-10-16T15:33:51;5.80;;;4.83;;
209;SDS011;90;48.810;9.120;2022-10-16T15:36:26;5.00;;;4.70;;
209;SDS011;90;48.810;9.120;2022-10-16T15:38:54;5.53;;;5.23;;
209;SDS011;90;48.810;9.120;2022-10-16T15:41:22;5.30;;;5.00;;
209;SDS011;90;48.810;9.120;2022-10-16T15:43:49;5.77;;;5.40;;
209;SDS011;90;48.810;9.120;2022-10-16T15:46:18;6.43;;;5.00;;
209;SDS011;90;48.810;9.120;2022-10-16T15:48:48;5.30;;;5.00;;
209;SDS011;90;48.810;9.120;2022-10-16T15:51:16;7.10;;;5.20;;
209;SDS011;90;48.810;9.120;2022-10-16T15:53:44;9.10;;;4.93;;
209;SDS011;90;48.810;9.120;2022-10-16T15:56:15;5.60;;;5.30;;
209;SDS011;90;48.810;9.120;2022-10-16T15:58:43;10.53;;;6.77;;
209;SDS011;90;48.810;9.120;2022-10-16T16:01:10;10.00;;;6.00;;
209;SDS011;90;48.810;9.120;2022-10-16T16:03:38;14.57;;;5.97;;
209;SDS011;90;48.810;9.120;2022-10-16T16:06:08;11.23;;;5.63;;
209;SDS011;90;48.810;9.120;2022-10-16T16:08:37;12.18;;;4.90;;
209;SDS011;90;48.810;9.120;2022-10-16T16:11:05;11.80;;;5.13;;
209;SDS011;90;48.810;9.120;2022-10-16T16:13:33;10.20;;;5.40;;
209;SDS011;90;48.810;9.120;2022-10-16T16:16:04;11.40;;;5.97;;
209;SDS011;90;48.810;9.120;2022-10-16T16:18:32;7.60;;;4.97;;
209;SDS011;90;48.810;9.120;2022-10-16T16:20:59;15.67;;;5.57;;
209;SDS011;90;48.810;9.120;2022-10-16T16:23:27;13.80;;;5.90;;
209;SDS011;90;48.810;9.120;2022-10-16T16:26:08;33.70;;;6.27;;
209;SDS011;90;48.810;9.120;2022-10-16T16:28:38;36.90;;;6.57;;